Share

Nett Lake, MN

Orr Regional (KORB) Elev 1309 ft | 48.02 °N, 92.86 °W | Change Station

Current weather conditions updated 12 minutes ago

Clear
Clear
30 °F
Feels Like 30 °F
N
0
Wind Variable Wind from North
Sunrise 6:18 AM
Sunset 8:04 PM
Moon Waning Gibbous

Tomorrow is forecast to be Much Warmer than today. Late night wintry mix tomorrow night.

Pressure 30.25 in
Visibility 10.0 miles
Clouds Clear
Dew Point 18 °F
Humidity 60%
Rainfall 0.00 in
Snow Depth Not available.
UV 0 out of 16
Pollen 6.30 out of 12
Air Quality Not available.
Flu Activity Sporadic
METAR KORB 180053Z AUTO 00000KT 10SM CLR M01/M08 A3025 RMK AO2

More Conditions Fewer Conditions

Pressure 30.25 in
Visibility 10.0 miles
Clouds Clear
Dew Point 18 °F
Humidity 60%
Rainfall 0.00 in
Snow Depth Not available.
UV 0 out of 16
Pollen 6.30 out of 12
Air Quality Not available.
Flu Activity Sporadic
METAR KORB 180053Z AUTO 00000KT 10SM CLR M01/M08 A3025 RMK AO2

More Conditions Fewer Conditions

10-Day Forecast

Almanac

Astronomy

Apr. 17, 2014 Rise Set
Actual Time 6:18 AM CDT 8:04 PM CDT
Civil Twilight 5:45 AM CDT 8:37 PM CDT
Nautical Twilight 5:05 AM CDT 9:18 PM CDT
Astronomical Twilight 4:20 AM CDT 10:02 PM CDT
Moon 11:00 PM CDT (4/17) 7:42 AM CDT (4/17)
Length of Visible Light 14h 52m
Length of Day
13h 46m
Tomorrow will be 3m 19s longer.
Waning Gibbous, 91% of the Moon is Illuminated
Today
Waning Gibbous
Apr 22
Last Quarter
Apr 29
New
May 6
First Quarter
May 14
Full

Today's Extremes

State Highs State Lows

Community

  • Morning Light
    Morning Light
  • New Day
    New Day
  • Lake Michigan Sunrise
    Lake Michigan Sunrise
  • sunset from izmir, narlıdere
    sunset from izmir, narlıdere
  • oregon cherry
    oregon cherry

WunderPhotos

Upload Photos

1,702,197 photos uploaded!

WunderBlogs® & News

Nearby

Snow Depth

Station Depth Elevation
No new snow has been reported.

Coastal Water Temperatures

Place Temperature
No Stations Reporting

Earthquake Activity

City Distance Mag. Time & Date
No recent earthquake activity has been reported nearby.
Minimum magnitude displayed is 2.5.

Nearby Weather Stations

Station Location Temp. Windchill Dew Point Humidity Wind Precip. Elev Updated Type
RAWS ORR MN, Nett Lake, MN 34 °F 34 °F 20 °F 55% East  at  2 mph 0.00 in / hr 1319 ft 7:08 PM CDT MADIS

Show More Stations Show Fewer Stations

What do you think?

We're not finished. Please let us know what you like, what you don't like, and what you are still missing.